createdAt,value
2022-08-10T00:01:53.220Z,1.90
2022-08-10T00:04:23.612Z,1.95
2022-08-10T00:06:54.405Z,1.75
2022-08-10T00:09:22.255Z,1.92
2022-08-10T00:11:48.777Z,1.88
2022-08-10T00:14:15.226Z,1.95
2022-08-10T00:16:41.679Z,1.80
2022-08-10T00:19:08.145Z,1.63
2022-08-10T00:21:36.631Z,2.03
2022-08-10T00:24:03.207Z,1.75
2022-08-10T00:27:51.947Z,1.70
2022-08-10T00:29:16.128Z,2.15
2022-08-10T00:31:57.937Z,2.28
2022-08-10T00:34:26.441Z,1.80
2022-08-10T00:36:52.887Z,1.88
2022-08-10T00:39:19.430Z,2.03
2022-08-10T00:41:45.934Z,1.80
2022-08-10T00:44:28.870Z,2.13
2022-08-10T00:46:55.999Z,1.98
2022-08-10T00:49:22.463Z,1.83
2022-08-10T00:51:49.026Z,1.90
2022-08-10T00:54:25.015Z,1.70
2022-08-10T00:57:16.584Z,2.08
2022-08-10T00:59:38.527Z,2.08
2022-08-10T01:02:25.180Z,2.10
2022-08-10T01:05:00.063Z,1.92
2022-08-10T01:07:30.562Z,2.20
2022-08-10T01:10:06.918Z,2.38
2022-08-10T01:12:55.154Z,2.30
2022-08-10T01:15:29.832Z,2.65
2022-08-10T01:18:09.868Z,2.30
2022-08-10T01:21:16.607Z,2.15
2022-08-10T01:24:06.458Z,2.28
2022-08-10T01:26:58.074Z,2.42
2022-08-10T01:29:39.355Z,2.28
2022-08-10T01:32:08.850Z,2.22
2022-08-10T01:35:23.761Z,2.40
2022-08-10T01:37:57.210Z,2.40
2022-08-10T01:40:25.787Z,2.58
2022-08-10T01:42:53.661Z,2.30
2022-08-10T01:45:21.272Z,2.30
2022-08-10T01:48:06.379Z,2.47
2022-08-10T01:50:53.390Z,2.10
2022-08-10T01:53:40.770Z,2.20
2022-08-10T01:56:09.542Z,2.50
2022-08-10T01:58:37.009Z,2.17
2022-08-10T02:01:04.319Z,2.20
2022-08-10T02:03:31.803Z,2.20
2022-08-10T02:05:59.220Z,2.40
2022-08-10T02:08:27.100Z,2.50
2022-08-10T02:10:54.503Z,1.88
2022-08-10T02:13:21.505Z,2.30
2022-08-10T02:16:02.290Z,2.33
2022-08-10T02:18:31.082Z,2.47
2022-08-10T02:20:58.878Z,2.53
2022-08-10T02:23:28.595Z,2.42
2022-08-10T02:25:57.674Z,2.17
2022-08-10T02:28:30.158Z,2.25
2022-08-10T02:31:01.828Z,2.40
2022-08-10T02:33:29.810Z,2.45
2022-08-10T02:36:00.716Z,3.05
2022-08-10T02:38:58.437Z,2.45
2022-08-10T02:45:13.343Z,2.42
2022-08-10T02:45:18.529Z,2.58
2022-08-10T02:47:51.363Z,2.40
2022-08-10T02:50:30.125Z,3.00
2022-08-10T02:53:05.117Z,2.72
2022-08-10T02:55:48.932Z,2.97
2022-08-10T02:58:19.724Z,3.08
2022-08-10T03:00:49.016Z,3.13
2022-08-10T03:03:20.472Z,2.60
2022-08-10T03:05:49.972Z,2.50
2022-08-10T03:08:19.724Z,2.70
2022-08-10T03:10:46.692Z,2.83
2022-08-10T03:13:13.834Z,2.70
2022-08-10T03:15:40.553Z,2.80
2022-08-10T03:18:07.070Z,2.55
2022-08-10T03:20:39.491Z,2.63
2022-08-10T03:23:22.169Z,2.72
2022-08-10T03:25:53.017Z,2.70
2022-08-10T03:30:54.987Z,2.53
2022-08-10T03:33:23.195Z,2.78
2022-08-10T03:36:41.600Z,2.50
2022-08-10T03:38:37.515Z,2.38
2022-08-10T03:41:05.488Z,3.00
2022-08-10T03:43:32.133Z,2.55
2022-08-10T03:45:59.965Z,2.55
2022-08-10T03:48:32.293Z,2.65
2022-08-10T03:51:14.622Z,2.45
2022-08-10T03:54:05.495Z,2.80
2022-08-10T03:56:32.074Z,2.65
2022-08-10T03:58:59.064Z,2.83
2022-08-10T04:02:41.829Z,2.30
2022-08-10T04:04:15.487Z,2.97
2022-08-10T04:06:45.688Z,2.70
2022-08-10T04:09:12.149Z,2.47
2022-08-10T04:11:40.663Z,2.67
2022-08-10T04:14:07.592Z,2.70
2022-08-10T04:16:53.999Z,2.88
2022-08-10T04:19:20.736Z,2.50
2022-08-10T04:21:57.009Z,3.00
2022-08-10T04:24:26.860Z,2.50
2022-08-10T04:26:53.971Z,2.58
2022-08-10T04:29:20.661Z,2.90
2022-08-10T04:31:48.054Z,2.88
2022-08-10T04:34:15.781Z,2.58
2022-08-10T04:36:42.400Z,2.63
2022-08-10T04:39:09.186Z,2.92
2022-08-10T04:41:36.051Z,2.67
2022-08-10T04:44:02.915Z,3.00
2022-08-10T04:46:56.556Z,2.70
2022-08-10T04:49:54.068Z,2.80
2022-08-10T04:52:02.366Z,2.80
2022-08-10T04:54:29.882Z,2.88
2022-08-10T04:56:56.437Z,2.60
2022-08-10T04:59:23.120Z,2.40
2022-08-10T05:02:28.666Z,3.05
2022-08-10T05:04:39.259Z,2.85
2022-08-10T05:07:07.585Z,3.05
2022-08-10T05:09:34.129Z,3.40
2022-08-10T05:12:20.602Z,3.25
2022-08-10T05:14:47.076Z,2.92
2022-08-10T05:17:13.566Z,3.05
2022-08-10T05:20:01.996Z,3.10
2022-08-10T05:22:26.519Z,3.33
2022-08-10T05:24:53.070Z,3.10
2022-08-10T05:27:19.582Z,3.55
2022-08-10T05:29:46.048Z,3.83
2022-08-10T05:32:29.224Z,3.95
2022-08-10T05:34:55.680Z,4.18
2022-08-10T05:38:09.731Z,3.78
2022-08-10T05:40:09.388Z,4.10
2022-08-10T05:42:36.357Z,3.72
2022-08-10T05:45:03.663Z,3.45
2022-08-10T05:48:55.671Z,3.72
2022-08-10T05:50:17.672Z,3.63
2022-08-10T05:52:44.145Z,4.10
2022-08-10T05:55:10.802Z,3.83
2022-08-10T05:57:37.421Z,3.45
2022-08-10T06:00:11.206Z,3.67
2022-08-10T06:03:03.345Z,3.75
2022-08-10T06:05:31.640Z,3.22
2022-08-10T06:08:19.832Z,3.80
2022-08-10T06:12:25.694Z,3.42
2022-08-10T06:14:13.172Z,3.60
2022-08-10T06:16:41.069Z,3.38
2022-08-10T06:19:07.925Z,3.50
2022-08-10T06:21:34.379Z,3.20
2022-08-10T06:24:01.903Z,2.92
2022-08-10T06:26:28.522Z,2.70
2022-08-10T06:29:02.971Z,2.85
2022-08-10T06:31:48.365Z,2.85
2022-08-10T06:34:21.387Z,3.05
2022-08-10T06:36:48.053Z,2.85
2022-08-10T06:39:33.047Z,2.95
2022-08-10T06:42:14.918Z,2.90
2022-08-10T06:44:52.284Z,2.85
2022-08-10T06:47:22.972Z,3.50
2022-08-10T06:49:52.592Z,2.72
2022-08-10T06:52:19.585Z,3.15
2022-08-10T06:54:47.225Z,2.40
2022-08-10T06:57:18.380Z,2.63
2022-08-10T06:59:46.259Z,2.22
2022-08-10T07:02:20.821Z,2.13
2022-08-10T07:05:01.076Z,2.17
2022-08-10T07:07:31.672Z,2.10
2022-08-10T07:10:00.368Z,1.90
2022-08-10T07:12:27.462Z,1.80
2022-08-10T07:14:55.023Z,1.88
2022-08-10T07:17:23.366Z,1.67
2022-08-10T07:19:52.861Z,1.98
2022-08-10T07:23:22.869Z,2.00
2022-08-10T07:25:10.960Z,1.83
2022-08-10T07:28:00.883Z,1.50
2022-08-10T07:30:28.265Z,1.50
2022-08-10T07:32:55.348Z,1.50
2022-08-10T07:35:22.583Z,1.70
2022-08-10T07:37:51.621Z,1.80
2022-08-10T07:40:20.007Z,1.80
2022-08-10T07:42:49.385Z,1.65
2022-08-10T07:45:15.932Z,1.50
2022-08-10T07:48:07.377Z,1.52
2022-08-10T07:50:37.145Z,1.67
2022-08-10T07:53:04.405Z,1.40
2022-08-10T07:56:05.507Z,1.30
2022-08-10T07:58:19.872Z,1.50
2022-08-10T08:00:46.794Z,1.73
2022-08-10T08:03:14.986Z,1.70
2022-08-10T08:06:02.555Z,1.50
2022-08-10T08:08:29.509Z,1.42
2022-08-10T08:10:58.048Z,1.50
2022-08-10T08:13:25.124Z,1.40
2022-08-10T08:16:20.786Z,1.42
2022-08-10T08:18:39.839Z,1.80
2022-08-10T08:24:10.073Z,1.65
2022-08-10T08:24:10.314Z,1.67
2022-08-10T08:26:51.496Z,1.50
2022-08-10T08:29:19.454Z,1.55
2022-08-10T08:31:54.544Z,1.80
2022-08-10T08:34:33.469Z,1.40
2022-08-10T08:37:01.190Z,1.73
2022-08-10T08:39:28.307Z,1.70
2022-08-10T08:42:30.005Z,1.25
2022-08-10T08:45:03.360Z,1.63
2022-08-10T08:48:05.505Z,1.38
2022-08-10T08:50:37.454Z,1.48
2022-08-10T08:54:03.147Z,1.53
2022-08-10T08:56:19.232Z,1.65
2022-08-10T08:59:11.464Z,1.58
2022-08-10T09:02:01.829Z,1.50
2022-08-10T09:05:01.436Z,1.58
2022-08-10T09:08:01.649Z,1.50
2022-08-10T09:10:46.101Z,1.42
2022-08-10T09:13:40.350Z,1.92
2022-08-10T09:16:38.219Z,1.60
2022-08-10T09:19:35.535Z,1.27
2022-08-10T09:22:18.743Z,1.40
2022-08-10T09:24:54.730Z,1.38
2022-08-10T09:27:24.666Z,1.52
2022-08-10T09:29:56.763Z,1.55
2022-08-10T09:36:28.449Z,1.50
2022-08-10T09:38:47.622Z,1.45
2022-08-10T09:41:27.120Z,1.60
2022-08-10T09:44:20.872Z,1.13
2022-08-10T09:47:10.920Z,1.55
2022-08-10T09:50:04.970Z,1.20
2022-08-10T09:52:44.332Z,1.40
2022-08-10T09:56:16.995Z,1.27
2022-08-10T09:58:27.978Z,1.27
2022-08-10T10:01:22.508Z,1.40
2022-08-10T10:04:22.168Z,1.40
2022-08-10T10:06:57.051Z,1.30
2022-08-10T10:10:21.048Z,1.83
2022-08-10T10:12:55.131Z,1.55
2022-08-10T10:15:48.629Z,1.50
2022-08-10T10:18:24.072Z,1.40
2022-08-10T10:21:54.497Z,1.40
2022-08-10T10:24:34.026Z,1.40
2022-08-10T10:27:06.511Z,1.70
2022-08-10T10:30:05.023Z,1.13
2022-08-10T10:32:37.401Z,1.40
2022-08-10T10:35:09.142Z,1.42
2022-08-10T10:38:01.086Z,1.50
2022-08-10T10:40:24.464Z,1.50
2022-08-10T10:43:05.906Z,1.30
2022-08-10T10:45:50.131Z,1.60
2022-08-10T10:48:41.660Z,1.25
2022-08-10T10:51:21.952Z,1.60
2022-08-10T10:54:16.204Z,1.15
2022-08-10T10:57:11.967Z,1.48
2022-08-10T11:00:03.841Z,1.80
2022-08-10T11:02:58.213Z,1.40
2022-08-10T11:05:43.125Z,1.15
2022-08-10T11:08:28.772Z,1.40
2022-08-10T11:10:59.630Z,1.50
2022-08-10T11:14:26.841Z,1.58
2022-08-10T11:16:52.852Z,1.60
2022-08-10T11:20:01.707Z,1.50
2022-08-10T11:22:40.628Z,1.58
2022-08-10T11:25:23.283Z,1.50
2022-08-10T11:28:03.976Z,1.67
2022-08-10T11:30:55.770Z,1.73
2022-08-10T11:34:03.928Z,1.73
2022-08-10T11:36:48.090Z,1.88
2022-08-10T11:39:48.839Z,1.80
2022-08-10T11:42:35.803Z,2.00
2022-08-10T11:45:11.112Z,1.70
2022-08-10T11:47:51.713Z,1.90
2022-08-10T11:50:28.291Z,1.80
2022-08-10T11:53:06.805Z,1.90
2022-08-10T11:55:33.754Z,1.60
2022-08-10T11:58:27.857Z,1.70
2022-08-10T12:01:02.093Z,1.52
2022-08-10T12:03:34.768Z,1.70
2022-08-10T12:06:02.026Z,1.63
2022-08-10T12:10:06.514Z,1.50
2022-08-10T12:11:26.535Z,1.60
2022-08-10T12:14:20.330Z,1.85
2022-08-10T12:16:50.417Z,1.80
2022-08-10T12:19:25.554Z,1.80
2022-08-10T12:22:06.428Z,1.55
2022-08-10T12:24:51.730Z,1.60
2022-08-10T12:27:27.082Z,1.40
2022-08-10T12:30:04.699Z,1.50
2022-08-10T12:32:53.816Z,1.20
2022-08-10T12:35:28.001Z,1.30
2022-08-10T12:38:16.748Z,1.50
2022-08-10T12:40:46.204Z,1.40
2022-08-10T12:44:06.603Z,1.67
2022-08-10T12:46:31.212Z,1.25
2022-08-10T12:49:04.483Z,1.70
2022-08-10T12:51:33.640Z,1.40
2022-08-10T12:54:11.237Z,1.33
2022-08-10T12:56:57.785Z,1.30
2022-08-10T12:59:27.189Z,1.50
2022-08-10T13:02:06.428Z,1.58
2022-08-10T13:04:37.581Z,1.33
2022-08-10T13:07:05.172Z,1.40
2022-08-10T13:09:33.003Z,1.20
2022-08-10T13:12:39.258Z,1.80
2022-08-10T13:15:28.373Z,1.27
2022-08-10T13:17:56.310Z,1.50
2022-08-10T13:20:27.235Z,1.40
2022-08-10T13:22:57.492Z,1.30
2022-08-10T13:25:28.976Z,1.40
2022-08-10T13:28:00.787Z,1.48
2022-08-10T13:30:32.101Z,1.30
2022-08-10T13:33:05.253Z,1.35
2022-08-10T13:35:32.419Z,1.20
2022-08-10T13:38:01.701Z,1.35
2022-08-10T13:40:28.896Z,1.42
2022-08-10T13:42:58.486Z,1.25
2022-08-10T13:45:25.857Z,1.40
2022-08-10T13:48:27.889Z,1.30
2022-08-10T13:50:58.196Z,1.30
2022-08-10T13:53:30.692Z,1.45
2022-08-10T13:55:58.151Z,1.50
2022-08-10T13:58:31.153Z,1.50
2022-08-10T14:00:59.735Z,1.30
2022-08-10T14:03:27.231Z,1.42
2022-08-10T14:05:55.272Z,1.30
2022-08-10T14:08:25.616Z,1.38
2022-08-10T14:11:01.382Z,1.33
2022-08-10T14:13:37.764Z,1.20
2022-08-10T14:16:06.337Z,1.40
2022-08-10T14:18:34.868Z,1.50
2022-08-10T14:21:01.607Z,1.30
2022-08-10T14:23:32.326Z,1.48
2022-08-10T14:26:04.119Z,1.50
2022-08-10T14:28:36.315Z,1.40
2022-08-10T14:31:06.050Z,1.40
2022-08-10T14:33:34.692Z,1.33
2022-08-10T14:36:19.624Z,1.45
2022-08-10T14:38:53.145Z,1.45
2022-08-10T14:42:02.881Z,1.42
2022-08-10T14:44:13.564Z,1.90
2022-08-10T14:46:47.016Z,1.45
2022-08-10T14:49:26.599Z,1.45
2022-08-10T14:51:59.781Z,1.50
2022-08-10T14:54:29.054Z,1.50
2022-08-10T14:56:57.078Z,1.30
2022-08-10T15:00:22.865Z,1.27
2022-08-10T15:02:40.288Z,1.30
2022-08-10T15:05:04.367Z,1.60
2022-08-10T15:07:36.964Z,1.40
2022-08-10T15:10:06.100Z,1.42
2022-08-10T15:12:34.935Z,1.33
2022-08-10T15:15:02.836Z,1.35
2022-08-10T15:17:34.826Z,1.63
2022-08-10T15:20:13.241Z,1.40
2022-08-10T15:22:46.264Z,1.60
2022-08-10T15:25:19.531Z,1.30
2022-08-10T15:27:53.907Z,1.20
2022-08-10T15:30:29.439Z,1.20
2022-08-10T15:33:21.459Z,1.42
2022-08-10T15:36:24.468Z,1.35
2022-08-10T15:38:59.640Z,1.60
2022-08-10T15:41:59.612Z,1.10
2022-08-10T15:44:41.278Z,1.20
2022-08-10T15:47:15.945Z,1.37
2022-08-10T15:50:01.353Z,1.35
2022-08-10T15:53:01.236Z,1.50
2022-08-10T15:55:42.660Z,1.48
2022-08-10T15:58:17.797Z,1.30
2022-08-10T16:00:49.326Z,1.35
2022-08-10T16:03:22.371Z,1.40
2022-08-10T16:06:02.165Z,1.63
2022-08-10T16:08:56.001Z,1.58
2022-08-10T16:11:38.384Z,1.20
2022-08-10T16:14:21.681Z,1.60
2022-08-10T16:16:51.094Z,1.38
2022-08-10T16:19:24.246Z,1.10
2022-08-10T16:22:01.928Z,1.15
2022-08-10T16:24:34.291Z,1.10
2022-08-10T16:27:04.878Z,1.30
2022-08-10T16:29:32.164Z,1.20
2022-08-10T16:32:20.901Z,1.50
2022-08-10T16:34:49.866Z,1.30
2022-08-10T16:37:16.580Z,1.35
2022-08-10T16:39:59.892Z,1.40
2022-08-10T16:42:29.998Z,1.30
2022-08-10T16:45:03.719Z,1.27
2022-08-10T16:47:32.792Z,1.60
2022-08-10T16:50:02.387Z,1.40
2022-08-10T16:52:30.315Z,1.38
2022-08-10T16:55:00.935Z,1.45
2022-08-10T16:57:45.511Z,1.20
2022-08-10T17:00:12.993Z,1.20
2022-08-10T17:02:41.322Z,1.45
2022-08-10T17:05:09.221Z,1.40
2022-08-10T17:07:37.526Z,1.33
2022-08-10T17:10:09.380Z,1.20
2022-08-10T17:12:39.217Z,1.40
2022-08-10T17:15:09.771Z,1.33
2022-08-10T17:17:45.557Z,1.17
2022-08-10T17:20:30.176Z,1.20
2022-08-10T17:23:02.421Z,1.20
2022-08-10T17:25:45.935Z,1.20
2022-08-10T17:28:32.755Z,1.30
2022-08-10T17:31:23.881Z,1.50
2022-08-10T17:33:58.440Z,1.27
2022-08-10T17:36:29.647Z,1.33
2022-08-10T17:38:56.670Z,1.10
2022-08-10T17:41:31.675Z,1.45
2022-08-10T17:44:04.121Z,1.30
2022-08-10T17:46:33.729Z,1.20
2022-08-10T17:49:06.130Z,1.25
2022-08-10T17:51:32.847Z,1.30
2022-08-10T17:54:00.468Z,1.30
2022-08-10T17:56:27.324Z,1.48
2022-08-10T17:58:57.201Z,1.30
2022-08-10T18:01:40.219Z,1.35
2022-08-10T18:04:15.451Z,1.35
2022-08-10T18:06:43.082Z,1.27
2022-08-10T18:09:18.311Z,1.40
2022-08-10T18:11:48.022Z,1.27
2022-08-10T18:14:15.758Z,1.52
2022-08-10T18:16:43.963Z,1.27
2022-08-10T18:19:12.404Z,1.45
2022-08-10T18:21:40.122Z,1.42
2022-08-10T18:24:16.146Z,1.50
2022-08-10T18:26:45.253Z,1.63
2022-08-10T18:29:14.080Z,1.50
2022-08-10T18:31:46.979Z,1.40
2022-08-10T18:34:17.803Z,1.40
2022-08-10T18:36:45.374Z,1.55
2022-08-10T18:39:14.596Z,1.45
2022-08-10T18:42:00.323Z,1.50
2022-08-10T18:44:40.769Z,1.50
2022-08-10T18:47:18.113Z,1.40
2022-08-10T18:49:56.357Z,1.42
2022-08-10T18:52:25.641Z,1.58
2022-08-10T18:54:56.589Z,1.30
2022-08-10T18:57:41.044Z,1.50
2022-08-10T19:00:15.717Z,1.35
2022-08-10T19:03:16.271Z,1.60
2022-08-10T19:06:20.410Z,1.25
2022-08-10T19:09:47.730Z,1.35
2022-08-10T19:12:29.898Z,1.23
2022-08-10T19:15:06.652Z,1.30
2022-08-10T19:18:03.306Z,1.20
2022-08-10T19:20:51.701Z,1.20
2022-08-10T19:23:34.405Z,1.20
2022-08-10T19:26:45.071Z,1.20
2022-08-10T19:30:09.332Z,1.15
2022-08-10T19:32:20.956Z,1.17
2022-08-10T19:35:11.784Z,1.10
2022-08-10T19:37:59.910Z,1.50
2022-08-10T19:40:46.021Z,1.10
2022-08-10T19:43:20.597Z,1.38
2022-08-10T19:46:03.242Z,1.75
2022-08-10T19:48:43.208Z,1.55
2022-08-10T19:51:26.397Z,1.80
2022-08-10T19:54:01.375Z,2.00
2022-08-10T19:56:52.833Z,1.50
2022-08-10T20:00:16.010Z,1.40
2022-08-10T20:03:11.698Z,1.58
2022-08-10T20:08:19.795Z,1.55
2022-08-10T20:11:46.357Z,1.40
2022-08-10T20:14:28.194Z,1.58
2022-08-10T20:17:04.998Z,1.25
2022-08-10T20:19:55.252Z,1.38
2022-08-10T20:22:37.696Z,1.40
2022-08-10T20:28:00.398Z,1.67
2022-08-10T20:30:32.355Z,1.27
2022-08-10T20:33:09.222Z,1.50
2022-08-10T20:35:53.351Z,1.30
2022-08-10T20:38:27.156Z,1.30
2022-08-10T20:41:18.506Z,1.40
2022-08-10T20:44:06.798Z,1.40
2022-08-10T20:46:54.601Z,1.48
2022-08-10T20:49:23.998Z,1.50
2022-08-10T20:51:58.811Z,1.50
2022-08-10T20:54:32.578Z,1.58
2022-08-10T20:58:04.446Z,1.60
2022-08-10T21:00:16.121Z,1.48
2022-08-10T21:03:07.116Z,1.70
2022-08-10T21:05:52.933Z,1.45
2022-08-10T21:08:44.881Z,1.50
2022-08-10T21:11:37.172Z,1.50
2022-08-10T21:14:43.995Z,1.65
2022-08-10T21:17:23.856Z,1.35
2022-08-10T21:20:11.844Z,1.40
2022-08-10T21:22:45.008Z,1.35
2022-08-10T21:25:18.556Z,1.40
2022-08-10T21:28:29.281Z,1.30
2022-08-10T21:31:14.239Z,1.52
2022-08-10T21:34:04.801Z,1.50
2022-08-10T21:36:34.335Z,1.30
2022-08-10T21:39:22.190Z,1.55
2022-08-10T21:42:44.509Z,1.50
2022-08-10T21:45:58.922Z,1.38
2022-08-10T21:48:57.259Z,1.40
2022-08-10T21:52:05.916Z,1.50
2022-08-10T21:54:58.621Z,1.30
2022-08-10T21:58:09.496Z,1.40
2022-08-10T22:00:59.089Z,1.17
2022-08-10T22:03:44.762Z,1.30
2022-08-10T22:06:31.019Z,1.60
2022-08-10T22:09:21.148Z,1.48
2022-08-10T22:12:10.783Z,1.52
2022-08-10T22:15:15.897Z,1.27
2022-08-10T22:18:06.210Z,1.80
2022-08-10T22:20:54.685Z,1.35
2022-08-10T22:23:40.535Z,1.67
2022-08-10T22:26:44.620Z,1.23
2022-08-10T22:29:55.107Z,1.40
2022-08-10T22:32:48.891Z,1.48
2022-08-10T22:35:36.740Z,1.40
2022-08-10T22:39:00.900Z,1.40
2022-08-10T22:42:01.483Z,1.60
2022-08-10T22:44:47.946Z,1.50
2022-08-10T22:47:37.010Z,1.55
2022-08-10T22:50:08.418Z,1.23
2022-08-10T22:52:57.140Z,1.50
2022-08-10T22:55:52.319Z,1.60
2022-08-10T22:58:38.937Z,1.60
2022-08-10T23:02:08.002Z,1.40
2022-08-10T23:07:04.289Z,1.50
2022-08-10T23:09:31.299Z,1.80
2022-08-10T23:12:00.584Z,1.40
2022-08-10T23:14:34.847Z,1.67
2022-08-10T23:18:02.112Z,1.75
2022-08-10T23:20:20.763Z,1.67
2022-08-10T23:22:52.484Z,1.60
2022-08-10T23:25:22.893Z,1.73
2022-08-10T23:27:59.915Z,1.90
2022-08-10T23:30:33.601Z,1.48
2022-08-10T23:33:01.196Z,1.65
2022-08-10T23:36:29.741Z,1.70
2022-08-10T23:38:25.475Z,1.70
2022-08-10T23:40:54.095Z,1.80
2022-08-10T23:43:46.633Z,1.92
2022-08-10T23:46:13.481Z,1.67
2022-08-10T23:48:45.050Z,1.90
2022-08-10T23:51:16.072Z,2.10
2022-08-10T23:53:45.179Z,2.15
2022-08-10T23:56:19.868Z,1.63
2022-08-10T23:58:48.977Z,1.90
